Time;durP1;ratioP1;P1;durP2;ratioP2;P2;SDS_P1;SDS_P2;PMS_P1;PMS_P2;Temp;Humidity;BMP_temperature;BMP_pressure;BME280_temperature;BME280_humidity;BME280_pressure;Samples;Min_cycle;Max_cycle;Signal;HPM_P1;HPM_P2
2022/12/15 00:38:43;;;;;;;57.90;27.15;;;;;;;;;;4991868;28;20040;-80
2022/12/15 00:41:10;;;;;;;59.80;28.13;;;;;;;;;;4990894;28;20040;-80
2022/12/15 00:43:36;;;;;;;58.22;28.50;;;;;;;;;;4989208;28;20038;-80
2022/12/15 00:48:47;;;;;;;62.30;28.77;;;;;;;;;;4988061;28;20053;-79
2022/12/15 00:51:14;;;;;;;56.90;27.17;;;;;;;;;;4998887;28;20088;-80
2022/12/15 01:21:10;;;;;;;62.00;29.23;;;;;;;;;;4990552;28;20583;-80
2022/12/15 01:23:37;;;;;;;81.80;35.70;;;;;;;;;;4991318;28;20030;-80
2022/12/15 01:26:04;;;;;;;68.90;31.38;;;;;;;;;;5001435;28;20031;-79
2022/12/15 01:28:30;;;;;;;64.82;30.70;;;;;;;;;;4989055;28;20038;-80
2022/12/15 01:30:56;;;;;;;73.65;32.05;;;;;;;;;;4989853;28;20109;-80
2022/12/15 01:33:23;;;;;;;61.92;29.90;;;;;;;;;;4962514;28;20035;-79
2022/12/15 01:35:59;;;;;;;61.17;29.38;;;;;;;;;;4982001;28;20397;-80
2022/12/15 01:38:26;;;;;;;66.78;30.40;;;;;;;;;;4990047;28;20483;-80
2022/12/15 01:40:55;;;;;;;64.20;30.48;;;;;;;;;;4988744;28;20456;-80
2022/12/15 01:43:23;;;;;;;67.93;30.08;;;;;;;;;;5005998;28;20049;-80
2022/12/15 01:45:49;;;;;;;69.07;31.30;;;;;;;;;;4987176;28;20031;-80
2022/12/15 01:48:27;;;;;;;70.72;31.30;;;;;;;;;;4992754;28;20440;-80
2022/12/15 01:50:56;;;;;;;80.45;31.75;;;;;;;;;;4990015;28;20440;-80
2022/12/15 01:53:23;;;;;;;77.40;31.80;;;;;;;;;;4986919;28;20494;-80
2022/12/15 01:55:50;;;;;;;121.75;40.35;;;;;;;;;;4990554;28;20067;-80
2022/12/15 01:58:17;;;;;;;177.75;53.72;;;;;;;;;;4988570;28;20507;-80
2022/12/15 02:00:43;;;;;;;90.32;40.00;;;;;;;;;;4984421;28;20154;-80
2022/12/15 02:03:11;;;;;;;72.47;32.95;;;;;;;;;;4988740;28;20042;-80
2022/12/15 02:05:38;;;;;;;68.78;32.45;;;;;;;;;;4985015;28;20035;-81
2022/12/15 02:08:04;;;;;;;71.28;32.53;;;;;;;;;;4995141;28;20030;-80
2022/12/15 02:10:50;;;;;;;58.30;28.92;;;;;;;;;;4988630;28;20038;-80
2022/12/15 02:13:25;;;;;;;58.53;27.83;;;;;;;;;;4994775;28;20038;-79
2022/12/15 02:15:59;;;;;;;60.83;29.55;;;;;;;;;;4982937;28;20026;-80
2022/12/15 02:18:37;;;;;;;54.10;28.65;;;;;;;;;;5001240;28;20030;-80
2022/12/15 02:21:06;;;;;;;58.85;27.15;;;;;;;;;;4987143;28;20114;-80
2022/12/15 02:23:32;;;;;;;56.60;27.70;;;;;;;;;;4989267;28;20040;-80
2022/12/15 02:26:05;;;;;;;55.15;27.38;;;;;;;;;;4990440;28;20518;-80
2022/12/15 02:28:42;;;;;;;55.30;28.23;;;;;;;;;;4987394;28;20127;-79
2022/12/15 02:34:13;;;;;;;56.25;27.40;;;;;;;;;;4985984;28;20468;-80
2022/12/15 02:36:41;;;;;;;60.30;27.83;;;;;;;;;;4978023;28;20077;-80
2022/12/15 02:39:07;;;;;;;63.38;28.10;;;;;;;;;;4979945;28;20033;-79
2022/12/15 02:41:35;;;;;;;62.47;27.95;;;;;;;;;;4981238;28;20035;-79
2022/12/15 02:44:04;;;;;;;55.08;26.95;;;;;;;;;;4989808;28;20038;-80
2022/12/15 02:46:36;;;;;;;56.08;27.20;;;;;;;;;;4986571;28;20530;-79
2022/12/15 02:49:08;;;;;;;59.78;29.23;;;;;;;;;;4986415;28;20031;-79
2022/12/15 02:51:54;;;;;;;56.58;26.92;;;;;;;;;;4985782;28;20026;-79
2022/12/15 02:54:34;;;;;;;69.43;29.67;;;;;;;;;;4986202;28;20050;-79
2022/12/15 02:57:04;;;;;;;63.78;30.23;;;;;;;;;;4968104;28;20022;-79
2022/12/15 02:59:36;;;;;;;55.17;24.88;;;;;;;;;;4973783;28;20444;-80
2022/12/15 03:02:05;;;;;;;64.38;31.67;;;;;;;;;;4986298;28;20066;-79
2022/12/15 03:04:32;;;;;;;65.90;32.67;;;;;;;;;;4987891;28;20030;-81
2022/12/15 03:07:01;;;;;;;72.55;33.50;;;;;;;;;;4986888;28;20038;-80
2022/12/15 03:09:28;;;;;;;69.57;31.50;;;;;;;;;;4989024;28;20436;-80
2022/12/15 03:11:54;;;;;;;67.15;31.17;;;;;;;;;;4971123;28;20038;-79
2022/12/15 03:14:20;;;;;;;69.22;31.48;;;;;;;;;;4975397;28;20184;-80
2022/12/15 03:16:46;;;;;;;64.95;30.75;;;;;;;;;;4987967;28;20030;-80
2022/12/15 03:19:12;;;;;;;58.28;29.40;;;;;;;;;;4986425;28;20450;-80
2022/12/15 03:21:38;;;;;;;67.03;29.75;;;;;;;;;;4997886;28;20026;-80
2022/12/15 03:24:04;;;;;;;58.53;30.33;;;;;;;;;;4982915;28;20035;-80
2022/12/15 03:26:30;;;;;;;63.05;31.75;;;;;;;;;;4988881;28;20037;-80
2022/12/15 03:28:57;;;;;;;70.28;32.42;;;;;;;;;;4988457;28;20483;-80
2022/12/15 03:31:23;;;;;;;65.50;31.85;;;;;;;;;;4987150;28;20042;-79
2022/12/15 03:33:49;;;;;;;60.92;29.00;;;;;;;;;;4985884;28;20049;-80
2022/12/15 03:36:15;;;;;;;67.05;31.52;;;;;;;;;;4979542;28;20053;-80
2022/12/15 03:38:41;;;;;;;73.65;34.67;;;;;;;;;;4955396;28;20518;-80
2022/12/15 03:41:07;;;;;;;80.10;36.33;;;;;;;;;;4986208;28;20038;-79
2022/12/15 03:43:33;;;;;;;73.38;34.85;;;;;;;;;;5004229;28;20500;-81
2022/12/15 03:45:59;;;;;;;68.30;33.53;;;;;;;;;;4986291;28;20100;-80
2022/12/15 03:48:26;;;;;;;73.72;34.42;;;;;;;;;;4988657;28;20456;-80
2022/12/15 03:50:52;;;;;;;74.30;33.13;;;;;;;;;;4969328;28;20124;-80
2022/12/15 03:53:18;;;;;;;72.78;32.80;;;;;;;;;;4974635;28;20023;-79
2022/12/15 03:55:45;;;;;;;74.28;34.90;;;;;;;;;;4982441;28;20086;-80
2022/12/15 03:58:11;;;;;;;71.28;33.78;;;;;;;;;;4986821;28;20045;-80
2022/12/15 04:00:38;;;;;;;66.03;32.25;;;;;;;;;;4987141;28;20073;-80
2022/12/15 04:03:04;;;;;;;65.10;32.13;;;;;;;;;;4985298;28;20568;-80
2022/12/15 04:05:32;;;;;;;71.47;32.67;;;;;;;;;;4983570;28;20081;-80
2022/12/15 04:07:58;;;;;;;73.70;33.75;;;;;;;;;;4977121;28;20034;-79
2022/12/15 04:10:25;;;;;;;66.63;32.15;;;;;;;;;;4982851;28;20034;-79
2022/12/15 04:12:58;;;;;;;79.18;34.33;;;;;;;;;;4992641;28;20039;-80
2022/12/15 04:15:25;;;;;;;76.80;34.35;;;;;;;;;;4988212;28;20447;-80
2022/12/15 04:17:51;;;;;;;81.47;34.97;;;;;;;;;;4989847;28;20568;-80
2022/12/15 04:20:17;;;;;;;75.55;33.75;;;;;;;;;;4990973;28;20041;-80
2022/12/15 04:22:44;;;;;;;78.63;36.80;;;;;;;;;;4984772;28;20046;-80
2022/12/15 05:33:56;;;;;;;75.78;34.70;;;;;;;;;;4984391;28;20042;-79
2022/12/15 05:36:22;;;;;;;77.10;34.80;;;;;;;;;;4983461;28;20026;-79
2022/12/15 05:38:49;;;;;;;83.43;36.30;;;;;;;;;;4988927;28;20391;-79
2022/12/15 05:41:17;;;;;;;81.55;36.90;;;;;;;;;;4984286;28;20431;-79
2022/12/15 05:43:43;;;;;;;81.97;36.70;;;;;;;;;;4970663;28;20041;-79
2022/12/15 05:46:09;;;;;;;89.15;37.47;;;;;;;;;;4982430;28;20030;-79
2022/12/15 05:48:35;;;;;;;82.15;35.50;;;;;;;;;;4988595;28;20471;-80
2022/12/15 05:51:05;;;;;;;78.93;34.63;;;;;;;;;;4962324;28;20095;-78
2022/12/15 05:53:31;;;;;;;83.63;34.85;;;;;;;;;;4977004;28;20056;-79
2022/12/15 05:56:04;;;;;;;75.03;34.05;;;;;;;;;;5004868;28;20050;-79
2022/12/15 05:58:30;;;;;;;77.50;34.05;;;;;;;;;;4986257;28;20165;-79
2022/12/15 06:01:03;;;;;;;89.20;36.70;;;;;;;;;;4967778;28;20056;-79
2022/12/15 06:03:30;;;;;;;79.43;35.75;;;;;;;;;;4981172;28;20177;-79
2022/12/15 06:05:57;;;;;;;76.35;34.70;;;;;;;;;;4994342;28;20035;-79
2022/12/15 06:08:23;;;;;;;70.90;33.72;;;;;;;;;;4983841;28;20034;-79
2022/12/15 06:10:53;;;;;;;89.75;36.97;;;;;;;;;;4988230;28;20345;-79
2022/12/15 06:13:20;;;;;;;81.47;37.47;;;;;;;;;;4991084;28;20041;-79
2022/12/15 06:15:56;;;;;;;99.95;38.55;;;;;;;;;;4973213;28;20034;-79
2022/12/15 06:18:23;;;;;;;94.78;39.00;;;;;;;;;;4983576;28;20129;-79
2022/12/15 06:20:49;;;;;;;86.20;38.25;;;;;;;;;;4987870;28;20495;-79
2022/12/15 06:23:16;;;;;;;92.25;39.17;;;;;;;;;;4988412;28;20456;-79
2022/12/15 06:25:43;;;;;;;95.97;40.47;;;;;;;;;;4986158;28;20035;-79
2022/12/15 06:28:09;;;;;;;92.38;39.88;;;;;;;;;;4987840;28;20415;-80
2022/12/15 06:30:35;;;;;;;99.03;41.28;;;;;;;;;;4987850;28;20035;-80
2022/12/15 06:33:01;;;;;;;98.97;39.65;;;;;;;;;;4971529;28;20395;-79
2022/12/15 06:35:27;;;;;;;99.07;41.10;;;;;;;;;;4991295;28;20515;-79
2022/12/15 06:37:53;;;;;;;102.15;42.05;;;;;;;;;;4977502;28;20039;-80
2022/12/15 06:40:19;;;;;;;104.93;43.50;;;;;;;;;;4979948;28;20543;-80
2022/12/15 06:42:45;;;;;;;94.35;39.97;;;;;;;;;;4987459;28;20034;-80
2022/12/15 06:45:11;;;;;;;88.70;38.85;;;;;;;;;;4985694;28;20037;-79
2022/12/15 06:47:38;;;;;;;92.18;41.00;;;;;;;;;;4984805;28;20038;-78
2022/12/15 06:50:04;;;;;;;94.03;39.72;;;;;;;;;;4957439;28;20089;-79
2022/12/15 06:52:30;;;;;;;89.47;40.88;;;;;;;;;;4972487;28;20105;-79
2022/12/15 06:54:56;;;;;;;84.43;38.28;;;;;;;;;;4982672;28;20050;-78
2022/12/15 06:57:22;;;;;;;135.70;54.10;;;;;;;;;;4987978;28;20033;-78
2022/12/15 06:59:48;;;;;;;126.38;43.38;;;;;;;;;;4985903;28;20035;-78
2022/12/15 07:02:16;;;;;;;90.95;39.65;;;;;;;;;;5004413;28;20030;-78
2022/12/15 07:04:43;;;;;;;89.88;40.38;;;;;;;;;;4987944;28;20035;-78
2022/12/15 07:07:09;;;;;;;98.15;43.85;;;;;;;;;;4974940;28;20019;-78
2022/12/15 07:09:35;;;;;;;97.22;43.70;;;;;;;;;;4986506;28;20064;-82
2022/12/15 07:12:01;;;;;;;95.68;42.40;;;;;;;;;;4982007;28;20027;-79
2022/12/15 07:14:28;;;;;;;100.93;42.33;;;;;;;;;;4985849;28;20034;-78
2022/12/15 07:16:54;;;;;;;98.35;43.65;;;;;;;;;;4965423;28;20557;-78
2022/12/15 07:19:20;;;;;;;330.73;105.20;;;;;;;;;;4966517;28;20824;-77
2022/12/15 07:21:46;;;;;;;206.57;73.25;;;;;;;;;;4998039;28;20035;-77
2022/12/15 07:24:12;;;;;;;197.05;68.55;;;;;;;;;;4970778;28;20050;-77
2022/12/15 07:26:57;;;;;;;150.85;58.30;;;;;;;;;;4988564;28;20111;-79
2022/12/15 07:29:24;;;;;;;152.82;55.17;;;;;;;;;;4979579;28;20436;-77
2022/12/15 07:31:50;;;;;;;127.78;49.42;;;;;;;;;;4986376;28;20069;-77
2022/12/15 07:34:16;;;;;;;99.13;42.65;;;;;;;;;;5002423;28;20399;-77
2022/12/15 07:36:42;;;;;;;99.25;43.67;;;;;;;;;;4988596;28;20054;-77
2022/12/15 07:39:08;;;;;;;105.82;43.53;;;;;;;;;;4979830;28;20038;-77
2022/12/15 07:41:34;;;;;;;101.22;43.63;;;;;;;;;;4990299;28;20038;-79
2022/12/15 07:44:01;;;;;;;106.07;45.55;;;;;;;;;;4980669;28;21811;-77
2022/12/15 07:46:27;;;;;;;105.78;45.90;;;;;;;;;;4999968;28;20637;-77
2022/12/15 07:48:54;;;;;;;101.43;45.50;;;;;;;;;;4991672;28;20092;-77
2022/12/15 07:51:20;;;;;;;103.57;46.20;;;;;;;;;;4985921;28;20050;-77
2022/12/15 07:53:46;;;;;;;103.72;46.10;;;;;;;;;;5005306;28;20030;-78
2022/12/15 07:56:14;;;;;;;108.85;46.30;;;;;;;;;;5003503;28;20052;-77
2022/12/15 07:58:40;;;;;;;106.75;45.55;;;;;;;;;;4993368;28;20042;-77
2022/12/15 08:01:09;;;;;;;103.85;45.40;;;;;;;;;;4990858;28;20169;-77
2022/12/15 08:03:35;;;;;;;103.20;44.90;;;;;;;;;;4994650;28;20491;-78
2022/12/15 08:06:06;;;;;;;106.88;46.20;;;;;;;;;;4991968;28;20395;-77
2022/12/15 08:08:32;;;;;;;103.35;44.95;;;;;;;;;;4993081;28;20035;-78
2022/12/15 08:10:59;;;;;;;97.82;43.65;;;;;;;;;;4992290;28;20057;-77
2022/12/15 08:13:25;;;;;;;104.03;44.53;;;;;;;;;;4992422;28;20022;-77
2022/12/15 08:15:54;;;;;;;112.60;46.55;;;;;;;;;;4991130;28;20045;-77
2022/12/15 08:18:20;;;;;;;104.45;46.83;;;;;;;;;;5007339;28;20085;-77
2022/12/15 08:20:46;;;;;;;98.78;43.40;;;;;;;;;;4988114;28;20035;-77
2022/12/15 08:23:12;;;;;;;110.05;46.33;;;;;;;;;;4988747;28;20455;-77
2022/12/15 08:25:38;;;;;;;105.75;46.05;;;;;;;;;;4992124;28;20073;-78
2022/12/15 08:28:05;;;;;;;100.35;44.92;;;;;;;;;;4992607;28;20375;-77
2022/12/15 08:30:33;;;;;;;103.88;44.90;;;;;;;;;;4983873;28;20031;-77
2022/12/15 08:32:59;;;;;;;102.18;44.38;;;;;;;;;;4978889;28;20023;-77
2022/12/15 08:35:25;;;;;;;101.15;46.35;;;;;;;;;;4985176;28;20081;-77
2022/12/15 08:37:51;;;;;;;102.90;45.33;;;;;;;;;;4977298;28;20038;-77
2022/12/15 08:40:17;;;;;;;102.10;46.25;;;;;;;;;;4991796;28;20082;-77
2022/12/15 08:42:44;;;;;;;132.43;66.88;;;;;;;;;;4988650;28;20038;-77
2022/12/15 08:45:11;;;;;;;169.15;88.75;;;;;;;;;;4985101;28;20038;-77
2022/12/15 08:47:37;;;;;;;163.73;81.75;;;;;;;;;;4989189;28;20438;-77
2022/12/15 08:50:05;;;;;;;143.52;67.63;;;;;;;;;;4988670;28;20030;-77
2022/12/15 08:52:32;;;;;;;106.63;49.53;;;;;;;;;;4989738;28;20023;-78
2022/12/15 08:54:58;;;;;;;135.68;72.38;;;;;;;;;;4992391;28;20043;-77
2022/12/15 08:57:24;;;;;;;119.30;56.30;;;;;;;;;;4985003;28;20041;-76
2022/12/15 08:59:50;;;;;;;117.07;50.80;;;;;;;;;;4990037;28;20034;-77
2022/12/15 09:02:16;;;;;;;109.68;49.15;;;;;;;;;;4990451;28;20033;-77
2022/12/15 09:04:44;;;;;;;110.88;48.33;;;;;;;;;;4973621;28;20027;-76
2022/12/15 09:07:10;;;;;;;108.75;48.30;;;;;;;;;;5002474;28;20096;-77
2022/12/15 09:09:37;;;;;;;112.55;50.28;;;;;;;;;;4991051;28;20399;-77
2022/12/15 09:12:03;;;;;;;113.80;51.47;;;;;;;;;;4990917;28;20038;-78
2022/12/15 09:14:29;;;;;;;112.45;49.45;;;;;;;;;;4978096;28;20126;-79
2022/12/15 09:16:55;;;;;;;119.43;50.38;;;;;;;;;;4977961;28;20097;-78
2022/12/15 09:19:22;;;;;;;105.78;50.33;;;;;;;;;;4991376;28;20030;-78
2022/12/15 09:21:48;;;;;;;104.15;50.28;;;;;;;;;;4987918;28;20104;-77
2022/12/15 09:24:14;;;;;;;105.82;49.42;;;;;;;;;;4992284;28;20372;-78
2022/12/15 09:26:41;;;;;;;120.28;50.53;;;;;;;;;;4991114;28;20034;-78
2022/12/15 09:29:11;;;;;;;101.90;48.65;;;;;;;;;;4992319;28;20049;-77
2022/12/15 09:31:37;;;;;;;110.00;51.17;;;;;;;;;;4991856;28;20065;-77
2022/12/15 09:34:03;;;;;;;107.20;50.60;;;;;;;;;;4988893;28;20041;-79
2022/12/15 09:36:31;;;;;;;114.03;52.25;;;;;;;;;;5004110;28;20022;-79
2022/12/15 09:38:57;;;;;;;93.85;49.17;;;;;;;;;;5009333;28;20073;-77
2022/12/15 09:41:26;;;;;;;102.93;48.72;;;;;;;;;;4992152;28;20038;-79
2022/12/15 09:44:01;;;;;;;106.72;47.70;;;;;;;;;;4989922;28;20372;-78
2022/12/15 09:46:43;;;;;;;92.47;47.75;;;;;;;;;;4989174;28;20038;-78
2022/12/15 09:49:15;;;;;;;96.63;47.85;;;;;;;;;;4990004;28;20033;-78
2022/12/15 09:51:47;;;;;;;98.03;47.85;;;;;;;;;;4987687;28;20027;-78
2022/12/15 09:54:13;;;;;;;99.10;48.00;;;;;;;;;;4989339;28;20360;-77
2022/12/15 09:56:52;;;;;;;91.43;46.00;;;;;;;;;;5005165;28;20051;-78
2022/12/15 09:59:24;;;;;;;91.97;45.63;;;;;;;;;;4985781;28;20030;-79
2022/12/15 10:01:59;;;;;;;97.72;46.85;;;;;;;;;;4987852;28;20455;-79
2022/12/15 10:04:33;;;;;;;96.28;48.53;;;;;;;;;;4973122;28;20034;-79
2022/12/15 10:07:33;;;;;;;92.50;45.78;;;;;;;;;;4980027;28;20030;-79
2022/12/15 10:10:03;;;;;;;85.30;44.63;;;;;;;;;;4966340;28;20046;-77
2022/12/15 10:12:31;;;;;;;85.85;43.65;;;;;;;;;;4989086;28;20400;-78
2022/12/15 10:15:17;;;;;;;81.28;42.60;;;;;;;;;;4989076;28;20113;-79
2022/12/15 10:17:43;;;;;;;85.43;41.75;;;;;;;;;;4990335;28;20395;-79
2022/12/15 10:20:28;;;;;;;79.93;38.95;;;;;;;;;;4990077;28;20034;-79
2022/12/15 10:22:56;;;;;;;76.57;41.95;;;;;;;;;;4990143;28;20563;-79
2022/12/15 10:25:24;;;;;;;80.35;40.97;;;;;;;;;;4989314;28;20150;-79
2022/12/15 10:27:57;;;;;;;74.90;39.47;;;;;;;;;;4987689;28;20026;-79
2022/12/15 10:30:23;;;;;;;70.22;38.35;;;;;;;;;;4991383;28;20121;-77
2022/12/15 10:32:49;;;;;;;71.40;41.00;;;;;;;;;;4990216;28;20106;-77
2022/12/15 10:35:17;;;;;;;76.32;42.25;;;;;;;;;;4989373;28;20026;-79
2022/12/15 10:37:43;;;;;;;75.13;41.72;;;;;;;;;;4970415;28;20066;-77
2022/12/15 10:40:13;;;;;;;70.57;39.63;;;;;;;;;;4989150;28;20069;-77
2022/12/15 10:42:48;;;;;;;65.70;37.25;;;;;;;;;;4988817;28;20510;-77
2022/12/15 10:45:40;;;;;;;64.97;37.40;;;;;;;;;;4993072;28;20061;-79
2022/12/15 10:48:17;;;;;;;63.25;35.28;;;;;;;;;;5001321;28;20400;-78
2022/12/15 10:50:43;;;;;;;76.50;35.25;;;;;;;;;;4988524;28;20118;-78
2022/12/15 10:53:29;;;;;;;62.97;34.35;;;;;;;;;;4981004;28;20035;-79
2022/12/15 10:56:01;;;;;;;73.82;36.10;;;;;;;;;;4983584;28;20078;-78
2022/12/15 10:58:27;;;;;;;69.93;35.00;;;;;;;;;;4987744;28;20057;-79
2022/12/15 11:01:05;;;;;;;58.15;35.08;;;;;;;;;;4988625;28;20403;-79
2022/12/15 11:03:35;;;;;;;59.67;32.17;;;;;;;;;;4989343;28;20447;-79
2022/12/15 11:06:01;;;;;;;62.35;33.80;;;;;;;;;;4990793;28;20022;-79
2022/12/15 11:08:28;;;;;;;72.10;35.88;;;;;;;;;;4988092;28;20038;-78
2022/12/15 11:14:04;;;;;;;55.38;31.23;;;;;;;;;;4989947;28;20031;-79
2022/12/15 11:16:31;;;;;;;58.03;31.40;;;;;;;;;;4988293;28;20038;-79
2022/12/15 11:19:20;;;;;;;57.15;32.50;;;;;;;;;;4988984;28;20030;-80
2022/12/15 11:21:51;;;;;;;61.78;32.45;;;;;;;;;;4968222;28;20097;-79
2022/12/15 11:24:25;;;;;;;56.92;31.45;;;;;;;;;;4978089;28;20046;-78
2022/12/15 11:26:55;;;;;;;56.80;31.05;;;;;;;;;;4973424;28;20313;-78
2022/12/15 11:29:33;;;;;;;58.25;30.15;;;;;;;;;;4988880;28;20086;-78
2022/12/15 11:31:59;;;;;;;53.38;30.80;;;;;;;;;;4989845;28;20031;-78
2022/12/15 11:34:30;;;;;;;51.60;29.20;;;;;;;;;;4989755;28;20377;-79
2022/12/15 11:37:02;;;;;;;54.13;29.63;;;;;;;;;;4989282;28;20038;-79
2022/12/15 11:39:40;;;;;;;52.00;30.10;;;;;;;;;;4980212;28;20061;-78
2022/12/15 11:42:15;;;;;;;50.20;29.45;;;;;;;;;;4983739;28;20058;-79
2022/12/15 11:44:48;;;;;;;52.65;29.38;;;;;;;;;;4984822;28;20034;-78
2022/12/15 11:47:22;;;;;;;47.75;27.48;;;;;;;;;;4981234;28;20022;-80
2022/12/15 11:49:52;;;;;;;57.63;30.92;;;;;;;;;;4985187;28;20089;-79
2022/12/15 11:52:21;;;;;;;52.50;28.23;;;;;;;;;;4987552;28;20026;-79
2022/12/15 11:54:54;;;;;;;47.13;27.98;;;;;;;;;;4988010;28;20476;-79
2022/12/15 11:57:41;;;;;;;43.60;25.70;;;;;;;;;;4989932;28;20664;-79
2022/12/15 12:00:15;;;;;;;46.28;26.30;;;;;;;;;;5004015;28;20519;-79
2022/12/15 12:02:47;;;;;;;44.88;24.63;;;;;;;;;;4986089;28;20547;-80
2022/12/15 12:05:22;;;;;;;58.33;25.23;;;;;;;;;;4988470;28;20039;-79
2022/12/15 12:08:06;;;;;;;44.20;26.25;;;;;;;;;;4987530;28;20133;-79
2022/12/15 12:10:53;;;;;;;43.85;24.90;;;;;;;;;;4981903;28;20062;-79
2022/12/15 12:13:46;;;;;;;49.35;26.10;;;;;;;;;;4977877;28;20377;-79
2022/12/15 12:16:15;;;;;;;39.25;22.65;;;;;;;;;;4985985;28;20041;-78
2022/12/15 12:18:50;;;;;;;35.80;23.88;;;;;;;;;;4988205;28;20034;-79
2022/12/15 12:21:20;;;;;;;39.72;22.33;;;;;;;;;;4984914;28;20037;-79
2022/12/15 12:24:09;;;;;;;39.05;21.63;;;;;;;;;;4969534;28;20755;-79
2022/12/15 12:26:41;;;;;;;45.75;22.50;;;;;;;;;;4966647;28;20050;-80
2022/12/15 12:29:25;;;;;;;35.58;21.70;;;;;;;;;;4989812;28;20052;-79
2022/12/15 12:31:58;;;;;;;40.65;23.92;;;;;;;;;;5006423;28;20064;-79
2022/12/15 12:34:49;;;;;;;44.80;23.13;;;;;;;;;;4993842;28;20035;-79
2022/12/15 12:37:35;;;;;;;45.05;22.35;;;;;;;;;;5007458;28;20584;-79
2022/12/15 12:40:06;;;;;;;41.13;22.80;;;;;;;;;;4989883;28;20031;-79
2022/12/15 12:42:45;;;;;;;40.08;23.52;;;;;;;;;;5003533;28;20030;-79
2022/12/15 12:45:13;;;;;;;38.88;23.25;;;;;;;;;;4986756;28;20023;-80
2022/12/15 12:47:42;;;;;;;40.78;22.80;;;;;;;;;;4989221;28;20018;-79
2022/12/15 12:50:15;;;;;;;41.53;23.92;;;;;;;;;;4991762;28;20026;-80
2022/12/15 12:52:47;;;;;;;41.50;23.25;;;;;;;;;;4990442;28;20033;-80
2022/12/15 12:55:13;;;;;;;38.30;24.27;;;;;;;;;;4993123;28;20380;-79
2022/12/15 12:57:40;;;;;;;39.15;24.17;;;;;;;;;;4991834;28;20022;-80
2022/12/15 13:00:14;;;;;;;40.65;23.35;;;;;;;;;;4991823;28;20369;-78
2022/12/15 13:02:44;;;;;;;42.60;26.35;;;;;;;;;;4991062;28;20395;-78
2022/12/15 13:05:34;;;;;;;42.15;24.67;;;;;;;;;;4989166;28;20771;-79
2022/12/15 13:08:09;;;;;;;40.28;25.88;;;;;;;;;;4979448;28;20037;-79
2022/12/15 13:10:40;;;;;;;50.88;27.88;;;;;;;;;;4990595;28;20436;-79
2022/12/15 13:13:18;;;;;;;44.23;27.70;;;;;;;;;;4991205;28;20452;-79
2022/12/15 13:15:45;;;;;;;46.05;26.95;;;;;;;;;;4981907;28;20794;-79
2022/12/15 13:18:16;;;;;;;44.60;27.42;;;;;;;;;;4990404;28;20252;-79
2022/12/15 13:20:43;;;;;;;48.42;26.85;;;;;;;;;;4991491;28;20042;-79
2022/12/15 13:23:21;;;;;;;40.17;25.40;;;;;;;;;;4989528;28;20034;-79
2022/12/15 13:25:57;;;;;;;44.35;26.05;;;;;;;;;;4991468;28;20033;-78
2022/12/15 13:28:27;;;;;;;42.53;25.48;;;;;;;;;;4990907;28;20030;-79
2022/12/15 13:31:12;;;;;;;45.58;26.67;;;;;;;;;;4991063;28;20058;-79
2022/12/15 13:33:47;;;;;;;40.47;25.67;;;;;;;;;;4988408;28;20065;-80
2022/12/15 13:36:33;;;;;;;41.55;25.38;;;;;;;;;;4988589;28;20027;-79
2022/12/15 13:38:59;;;;;;;42.03;26.67;;;;;;;;;;4978689;28;20030;-79
2022/12/15 13:41:26;;;;;;;42.72;26.15;;;;;;;;;;5005167;28;20030;-79
2022/12/15 13:43:53;;;;;;;42.28;26.08;;;;;;;;;;4979719;28;20396;-79
2022/12/15 13:46:24;;;;;;;39.35;24.20;;;;;;;;;;4980241;28;20589;-79
2022/12/15 13:49:03;;;;;;;43.20;23.17;;;;;;;;;;4990294;28;20412;-79
2022/12/15 13:51:37;;;;;;;39.33;24.08;;;;;;;;;;4991683;28;20437;-79
2022/12/15 13:54:11;;;;;;;41.35;24.23;;;;;;;;;;4973072;28;20656;-78
2022/12/15 13:56:41;;;;;;;38.10;23.60;;;;;;;;;;4972645;28;20050;-79
2022/12/15 13:59:26;;;;;;;37.90;23.27;;;;;;;;;;4971396;28;20523;-78
2022/12/15 14:01:53;;;;;;;39.10;22.50;;;;;;;;;;4983241;28;20118;-78
2022/12/15 14:04:20;;;;;;;39.13;22.15;;;;;;;;;;5006301;28;20129;-79
2022/12/15 14:06:54;;;;;;;92.65;25.58;;;;;;;;;;4988048;28;20046;-79
2022/12/15 14:09:26;;;;;;;59.97;22.60;;;;;;;;;;4989494;28;20030;-78
2022/12/15 14:11:52;;;;;;;52.22;21.40;;;;;;;;;;4989152;28;20545;-78
2022/12/15 14:14:24;;;;;;;35.83;21.20;;;;;;;;;;4988887;28;20034;-78
2022/12/15 14:17:12;;;;;;;35.10;20.25;;;;;;;;;;4986388;28;20035;-79
2022/12/15 14:19:40;;;;;;;40.55;19.27;;;;;;;;;;4963547;28;20157;-79
2022/12/15 14:22:18;;;;;;;36.45;19.55;;;;;;;;;;4990567;28;20144;-81
2022/12/15 14:24:45;;;;;;;36.70;21.00;;;;;;;;;;4990661;28;20483;-79
2022/12/15 14:27:22;;;;;;;39.83;21.23;;;;;;;;;;4987249;28;20494;-79
2022/12/15 14:29:48;;;;;;;33.22;20.50;;;;;;;;;;4988181;28;20065;-80
2022/12/15 14:32:15;;;;;;;33.40;21.55;;;;;;;;;;4990545;28;20030;-80
2022/12/15 14:34:42;;;;;;;38.60;22.45;;;;;;;;;;4987110;28;20129;-80
2022/12/15 14:37:10;;;;;;;41.58;22.05;;;;;;;;;;4986550;28;20030;-79
2022/12/15 14:39:42;;;;;;;39.45;22.27;;;;;;;;;;4988455;28;20034;-81
2022/12/15 14:42:14;;;;;;;42.42;22.50;;;;;;;;;;4990121;28;20046;-80
2022/12/15 14:44:44;;;;;;;38.20;23.15;;;;;;;;;;4986991;28;20373;-80
2022/12/15 14:47:23;;;;;;;38.95;22.60;;;;;;;;;;4989889;28;20026;-79
2022/12/15 14:49:49;;;;;;;40.75;24.10;;;;;;;;;;4989749;28;20040;-80
2022/12/15 14:52:30;;;;;;;38.33;23.40;;;;;;;;;;4989059;28;20117;-79
2022/12/15 14:54:58;;;;;;;42.78;23.33;;;;;;;;;;4987406;28;20042;-80
2022/12/15 14:57:26;;;;;;;48.80;24.00;;;;;;;;;;4988084;28;20041;-79
2022/12/15 14:59:52;;;;;;;36.67;23.80;;;;;;;;;;4988676;28;20065;-79
2022/12/15 15:02:25;;;;;;;37.63;22.85;;;;;;;;;;4989294;28;20413;-78
2022/12/15 15:04:58;;;;;;;42.97;25.23;;;;;;;;;;4988743;28;20223;-81
2022/12/15 15:07:25;;;;;;;40.10;25.80;;;;;;;;;;4989359;28;20480;-79
2022/12/15 15:09:51;;;;;;;49.40;27.73;;;;;;;;;;4985743;28;20034;-78
2022/12/15 15:12:22;;;;;;;45.47;27.67;;;;;;;;;;5005178;28;20088;-79
2022/12/15 15:14:52;;;;;;;50.20;27.92;;;;;;;;;;4988458;28;20037;-80
2022/12/15 15:17:31;;;;;;;50.80;28.75;;;;;;;;;;4986276;28;20421;-79
2022/12/15 15:19:59;;;;;;;57.47;29.25;;;;;;;;;;4981436;28;20066;-79
2022/12/15 15:22:44;;;;;;;48.50;29.38;;;;;;;;;;4989304;28;20034;-79
2022/12/15 15:25:35;;;;;;;51.08;30.05;;;;;;;;;;4988429;28;20466;-79
2022/12/15 15:28:13;;;;;;;50.58;30.70;;;;;;;;;;4990665;28;20447;-79
2022/12/15 15:30:46;;;;;;;54.05;32.00;;;;;;;;;;4989855;28;20586;-79
2022/12/15 15:33:13;;;;;;;61.53;31.77;;;;;;;;;;4990503;28;20031;-79
2022/12/15 15:35:40;;;;;;;57.63;32.95;;;;;;;;;;4989481;28;20109;-79
2022/12/15 15:38:17;;;;;;;61.55;33.75;;;;;;;;;;4990513;28;20109;-79
2022/12/15 15:40:57;;;;;;;57.60;34.00;;;;;;;;;;5004629;28;20121;-79
2022/12/15 15:43:24;;;;;;;60.72;34.28;;;;;;;;;;4976326;28;20067;-79
2022/12/15 15:45:55;;;;;;;55.70;33.53;;;;;;;;;;4986338;28;20070;-79
2022/12/15 15:48:24;;;;;;;57.97;33.65;;;;;;;;;;4985951;28;20030;-79
2022/12/15 15:50:50;;;;;;;64.55;35.72;;;;;;;;;;4986918;28;20435;-79
2022/12/15 15:53:19;;;;;;;63.08;37.28;;;;;;;;;;4989255;28;20030;-79
2022/12/15 15:55:46;;;;;;;67.10;38.03;;;;;;;;;;4987854;28;20134;-79
2022/12/15 15:58:12;;;;;;;71.25;37.90;;;;;;;;;;5005438;28;20038;-79
2022/12/15 16:00:39;;;;;;;70.60;40.80;;;;;;;;;;5003258;28;20065;-79
2022/12/15 16:03:05;;;;;;;69.10;40.65;;;;;;;;;;4980606;28;20126;-79
2022/12/15 16:05:33;;;;;;;71.85;42.50;;;;;;;;;;4980253;28;20438;-79
2022/12/15 16:07:59;;;;;;;75.72;41.85;;;;;;;;;;4989244;28;20402;-79
2022/12/15 16:10:25;;;;;;;83.07;43.00;;;;;;;;;;4985633;28;20042;-79
2022/12/15 16:12:53;;;;;;;85.43;45.03;;;;;;;;;;4990048;28;20038;-79
2022/12/15 16:15:22;;;;;;;77.18;43.42;;;;;;;;;;5006931;28;20396;-79
2022/12/15 16:17:48;;;;;;;82.60;43.03;;;;;;;;;;4992288;28;20086;-79
2022/12/15 16:20:15;;;;;;;71.50;39.92;;;;;;;;;;4992155;28;20030;-82
2022/12/15 16:22:43;;;;;;;73.35;41.78;;;;;;;;;;4988317;28;20081;-80
2022/12/15 16:25:13;;;;;;;79.00;40.42;;;;;;;;;;4992746;28;20022;-79
2022/12/15 16:27:40;;;;;;;87.18;45.55;;;;;;;;;;4992883;28;20504;-80
2022/12/15 16:30:16;;;;;;;90.40;45.22;;;;;;;;;;4992905;28;20345;-79
2022/12/15 16:32:42;;;;;;;87.80;48.83;;;;;;;;;;4989393;28;20037;-79
2022/12/15 16:35:09;;;;;;;93.63;49.28;;;;;;;;;;4991567;28;20468;-79
2022/12/15 16:37:36;;;;;;;84.75;47.72;;;;;;;;;;5006677;28;20488;-80
2022/12/15 16:40:03;;;;;;;88.28;49.03;;;;;;;;;;4990996;28;20034;-79
2022/12/15 16:42:29;;;;;;;85.00;48.03;;;;;;;;;;4990989;28;20403;-79
2022/12/15 16:44:55;;;;;;;93.53;49.45;;;;;;;;;;4991963;28;20036;-79
2022/12/15 16:47:22;;;;;;;81.28;49.13;;;;;;;;;;4985057;28;20038;-79
2022/12/15 16:49:48;;;;;;;76.32;47.40;;;;;;;;;;4989847;28;20052;-79
2022/12/15 16:52:19;;;;;;;79.03;44.85;;;;;;;;;;4989744;28;20405;-79